• Join FlightAware (Why Join?)
  • Login
  • US Flag 
08:34AM EST


 

Airport Tracker/Info


-or-


 

Live Flight TrackerFlight Track Log ✈ UAL3740 ✈ 22-Apr-2013 ✈ KIAD - KPVD

Flight Track Log - Related Links

Times and Time Zones

All times are in EDT time to prevent confusion due to time zone crossing. See the UAL3740 flight status page for this flight to view local times or setup timezone preferences in your user account.

Time Position Orientation Groundspeed Altitude Reporting Facility
EDT Latitude Longitude Course Direction KTS MPH feet Rate Location/Type
08:29AM 38.9833 -77.4500 349° North 191 220 2,300  Level Potomac TRACON
08:29AM 39.0500 -77.4667 349° North 249 287 4,500 2,580 Climbing Potomac TRACON
08:30AM 39.1000 -77.4500 15° North 267 307 7,300 2,640 Climbing Potomac TRACON
08:32AM 39.1667 -77.3833 38° Northeast 290 334 9,900 1,800 Climbing Potomac TRACON
08:33AM 39.1333 -77.2833 113° Southeast 325 374 11,000 1,500 Climbing Potomac TRACON
08:34AM 39.1000 -77.1833 113° Southeast 335 386 13,000 1,980 Climbing Potomac TRACON
08:36AM 39.0961 -76.8967 91° East 366 421 17,600 1,800 Climbing Washington Center
08:37AM 39.1078 -76.7606 84° East 371 427 19,000 1,620 Climbing Washington Center
08:38AM 39.1175 -76.6217 85° East 376 433 20,900 1,800 Climbing Washington Center
08:39AM 39.1289 -76.4800 84° East 388 447 22,700 1,020 Climbing Washington Center
08:40AM 39.1403 -76.3303 84° East 399 459 23,000 120 Climbing Washington Center
08:41AM 39.1517 -76.1858 84° East 405 466 23,000  Level Washington Center
08:42AM 39.1750 -76.0414 78° East 405 466 23,000 420 Level Washington Center
08:43AM 39.1944 -75.8917 80° East 410 472 23,900 1,020 Climbing Washington Center
08:44AM 39.2758 -75.7711 49° Northeast 410 472 25,100 1,200 Climbing Washington Center
08:45AM 39.3678 -75.6561 44° Northeast 433 498 26,300 1,080 Climbing Washington Center
08:46AM 39.4614 -75.5378 44° Northeast 451 519 27,300 1,020 Climbing Washington Center
08:47AM 39.5550 -75.4167 45° Northeast 462 532 28,400 960 Climbing Washington Center
08:48AM 39.6506 -75.2869 46° Northeast 474 545 29,300 840 Climbing Washington Center
08:49AM 39.7461 -75.1544 47° Northeast 487 560 30,100 1,020 Climbing Washington Center
08:50AM 39.8611 -74.9842 49° Northeast 514 592 31,500 960 Climbing New York Center
08:51AM 39.9597 -74.8439 47° Northeast 527 606 32,200 720 Climbing New York Center
08:52AM 40.0583 -74.7033 47° Northeast 528 608 33,000 360 Climbing New York Center
08:53AM 40.1481 -74.5725 48° Northeast 528 608 33,000  Level New York Center
08:54AM 40.2247 -74.3975 60° Northeast 544 626 33,000 -960 Level New York Center
08:56AM 40.3814 -73.9439 65° Northeast 532 612 29,800 -1,620 Descending Boston Center
08:57AM 40.4378 -73.7814 65° Northeast 508 585 27,700 -1,440 Descending Boston Center
08:58AM 40.4831 -73.6325 68° East 492 566 27,000 -360 Descending Boston Center
08:59AM 40.5367 -73.4750 66° East 478 550 27,000 -540 Level Boston Center
09:00AM 40.5922 -73.3119 66° East 478 550 26,000 -1,500 Descending Boston Center
09:01AM 40.6456 -73.1431 67° East 478 550 24,000 -1,980 Descending Boston Center
09:02AM 40.6986 -72.9958 65° Northeast 468 539 22,100 -2,040 Descending Boston Center
09:03AM 40.7533 -72.8428 65° Northeast 431 496 20,000 -1,860 Descending Boston Center
09:04AM 40.7994 -72.7006 67° East 417 480 18,400 -1,260 Descending Boston Center
09:05AM 40.8372 -72.5744 68° East 409 471 17,500 -1,260 Descending Boston Center
09:06AM 40.8811 -72.4483 65° Northeast 403 464 15,900 -1,620 Descending Boston Center
09:07AM 40.9144 -72.3550 65° Northeast 369 425 14,700 -1,740 Descending Boston Center
09:08AM 40.9456 -72.2561 67° East 369 425 13,400 -1,680 Descending Boston Center
09:08AM 40.9622 -72.2008 68° East 370 426 12,700 -1,620 Descending Boston Center
09:09AM 40.9953 -72.1100 64° Northeast 356 410 11,500 -1,620 Descending Boston Center
09:09AM 41.0014 -72.0797 75° East 356 410 11,100 -540 Descending Boston Center
09:10AM 41.0303 -71.9917 66° East 350 403 11,000 -120 Descending Boston Center
09:10AM 41.0386 -71.9639 68° East 351 404 11,000 -120 Level Boston Center
09:11AM 41.0694 -71.8950 59° Northeast 342 394 10,900 -540 Descending Boston Center
09:11AM 41.0964 -71.8533 49° Northeast 337 388 10,500 -840 Descending Boston Center
09:12AM 41.1253 -71.8092 49° Northeast 302 348 10,100 -1,320 Descending Boston Center
09:13AM 41.1769 -71.7231 51° Northeast 279 321 8,400 -1,500 Descending Boston Center
09:14AM 41.2242 -71.6481 50° Northeast 265 305 7,100 -1,500 Descending Boston Center
09:15AM 41.2697 -71.5756 50° Northeast 255 293 5,400 -1,020 Descending Boston Center
09:16AM 41.3150 -71.5033 50° Northeast 243 280 5,000 -240 Descending Boston Center
09:17AM 41.3539 -71.4389 51° Northeast 241 277 5,000  Level Boston Center
09:18AM 41.4167 -71.4519 351° North 265 305 5,000 -300 Level Boston Center
09:19AM 41.4525 -71.5261 303° West 207 238 4,400 -1,020 Descending Boston Center
09:20AM 41.4803 -71.5894 300° West 196 226 2,900 -1,200 Descending Boston Center
09:21AM 41.5178 -71.6000 348° North 168 193 2,000 -480 Descending Boston Center
09:22AM 41.5550 -71.5689 32° Northeast 161 185 2,000  Level Boston Center
09:23AM 41.5986 -71.5322 32° Northeast 162 186 2,000  Level Boston Center